createdAt,value
2023-03-23T15:58:13.849Z,30.30
2023-03-23T16:00:44.185Z,30.00
2023-03-23T16:03:19.143Z,29.70
2023-03-23T16:05:47.611Z,29.40
2023-03-23T16:08:16.758Z,29.40
2023-03-23T16:10:45.289Z,29.50
2023-03-23T16:13:13.558Z,29.50
2023-03-23T16:15:42.324Z,29.30
2023-03-23T16:18:20.758Z,29.10
2023-03-23T16:20:49.605Z,28.70
2023-03-23T16:23:17.893Z,28.30
2023-03-23T16:25:46.479Z,27.80
2023-03-23T16:28:16.102Z,27.40
2023-03-23T16:30:45.648Z,27.10
2023-03-23T16:33:14.608Z,26.90
2023-03-23T16:35:44.918Z,26.70
2023-03-23T16:38:16.933Z,26.40
2023-03-23T16:40:46.381Z,26.30
2023-03-23T16:43:15.218Z,26.10
2023-03-23T16:45:45.875Z,25.80
2023-03-23T16:48:16.047Z,25.70
2023-03-23T16:50:46.567Z,25.50
2023-03-23T16:53:14.907Z,25.20
2023-03-23T16:55:47.867Z,25.10
2023-03-23T16:58:17.992Z,24.90
2023-03-23T17:00:50.031Z,24.70
2023-03-23T17:03:19.070Z,24.60
2023-03-23T17:05:49.458Z,24.40
2023-03-23T17:08:18.217Z,24.30
2023-03-23T17:10:47.253Z,24.10
2023-03-23T17:13:15.699Z,24.10
2023-03-23T17:15:46.890Z,23.90
2023-03-23T17:18:16.547Z,23.80
2023-03-23T17:20:45.298Z,23.70
2023-03-23T17:23:15.060Z,23.60
2023-03-23T17:25:45.384Z,23.50
2023-03-23T17:28:14.047Z,23.40
2023-03-23T17:30:43.569Z,23.30
2023-03-23T17:33:12.464Z,23.20
2023-03-23T17:35:43.677Z,23.20
2023-03-23T17:38:12.539Z,23.00
2023-03-23T17:40:42.300Z,23.00
2023-03-23T17:43:10.697Z,22.90
2023-03-23T17:45:39.060Z,22.80
2023-03-23T17:48:08.224Z,22.80
2023-03-23T17:50:37.314Z,22.70
2023-03-23T17:53:06.349Z,22.70
2023-03-23T17:55:34.930Z,22.60
2023-03-23T17:58:04.685Z,22.50
2023-03-23T18:00:33.129Z,22.40
2023-03-23T18:03:01.482Z,22.30
2023-03-23T18:05:31.063Z,22.20
2023-03-23T18:07:59.391Z,22.20
2023-03-23T18:10:27.732Z,22.10
2023-03-23T18:12:56.148Z,22.00
2023-03-23T18:15:28.113Z,21.90
2023-03-23T18:17:58.077Z,21.90
2023-03-23T18:20:26.816Z,21.80
2023-03-23T18:22:55.176Z,21.80
2023-03-23T18:25:23.992Z,21.70
2023-03-23T18:27:52.365Z,21.60
2023-03-23T18:30:21.071Z,21.60
2023-03-23T18:32:50.914Z,21.60
2023-03-23T18:35:19.435Z,21.40
2023-03-23T18:37:48.354Z,21.40
2023-03-23T18:40:20.046Z,21.40
2023-03-23T18:42:49.333Z,21.30
2023-03-23T18:45:18.502Z,21.30
2023-03-23T18:47:46.984Z,21.30
2023-03-23T18:50:16.912Z,21.20
2023-03-23T18:52:46.350Z,21.20
2023-03-23T18:55:14.768Z,21.10
2023-03-23T18:57:43.116Z,21.10
2023-03-23T19:00:12.586Z,21.00
2023-03-23T19:02:41.633Z,21.00
2023-03-23T19:05:11.266Z,20.90
2023-03-23T19:07:41.046Z,20.80
2023-03-23T19:10:09.730Z,20.80
2023-03-23T19:12:38.174Z,20.70
2023-03-23T19:15:08.007Z,20.70
2023-03-23T19:17:38.708Z,20.70
2023-03-23T19:20:14.557Z,20.60
2023-03-23T19:22:47.062Z,20.60
2023-03-23T19:25:15.561Z,20.50
2023-03-23T19:28:27.492Z,20.50
2023-03-23T19:30:32.486Z,20.50
2023-03-23T19:33:01.038Z,20.50
2023-03-23T19:35:29.869Z,20.50
2023-03-23T19:37:59.870Z,20.40
2023-03-23T19:43:01.026Z,20.40
2023-03-23T19:45:29.332Z,20.40
2023-03-23T19:47:57.658Z,20.30
2023-03-23T19:50:26.426Z,20.30
2023-03-23T19:52:54.790Z,20.20
2023-03-23T19:55:24.679Z,20.20
2023-03-23T19:57:53.031Z,20.10
2023-03-23T20:00:24.011Z,20.10
2023-03-23T20:02:53.312Z,20.10
2023-03-23T20:05:22.341Z,20.00
2023-03-23T20:07:51.980Z,20.00
2023-03-23T20:10:21.561Z,20.00
2023-03-23T20:12:52.540Z,19.90
2023-03-23T20:15:22.000Z,19.90
2023-03-23T20:17:50.831Z,19.90
2023-03-23T20:20:20.805Z,19.80
2023-03-23T20:22:51.238Z,19.80
2023-03-23T20:25:23.483Z,19.80
2023-03-23T20:27:55.081Z,19.70
2023-03-23T20:30:24.379Z,19.70
2023-03-23T20:32:58.106Z,19.60
2023-03-23T20:35:26.883Z,19.60
2023-03-23T20:37:55.971Z,19.60
2023-03-23T20:40:24.360Z,19.60
2023-03-23T20:42:54.722Z,19.60
2023-03-23T20:45:24.668Z,19.50
2023-03-23T20:47:54.368Z,19.50
2023-03-23T20:50:23.781Z,19.50
2023-03-23T20:52:53.229Z,19.40
2023-03-23T20:55:22.146Z,19.40
2023-03-23T20:57:50.831Z,19.30
2023-03-23T21:00:21.589Z,19.30
2023-03-23T21:02:54.265Z,19.30
2023-03-23T21:05:22.936Z,19.30
2023-03-23T21:07:51.427Z,19.20
2023-03-23T21:10:22.900Z,19.20
2023-03-23T21:12:51.900Z,19.10
2023-03-23T21:15:22.424Z,19.10
2023-03-23T21:17:52.467Z,19.00
2023-03-23T21:20:23.161Z,19.10
2023-03-23T21:22:52.599Z,19.00
2023-03-23T21:25:22.553Z,19.00
2023-03-23T21:28:05.118Z,18.90
2023-03-23T21:30:35.630Z,19.00
2023-03-23T21:33:04.380Z,18.90
2023-03-23T21:35:32.891Z,18.90
2023-03-23T21:38:01.352Z,18.80
2023-03-23T21:40:29.871Z,18.80
2023-03-23T21:42:58.937Z,18.80
2023-03-23T21:45:29.160Z,18.80
2023-03-23T21:48:00.131Z,18.70
2023-03-23T21:50:30.407Z,18.70
2023-03-23T21:52:58.790Z,18.70
2023-03-23T21:55:29.834Z,18.70
2023-03-23T21:57:58.525Z,18.60
2023-03-23T22:00:26.977Z,18.60
2023-03-23T22:02:56.036Z,18.60
2023-03-23T22:05:25.943Z,18.50
2023-03-23T22:07:54.375Z,18.50
2023-03-23T22:10:22.799Z,18.50
2023-03-23T22:12:55.009Z,18.40
2023-03-23T22:15:27.908Z,18.40
2023-03-23T22:17:56.623Z,18.40
2023-03-23T22:20:26.785Z,18.30
2023-03-23T22:22:55.234Z,18.30
2023-03-23T22:25:24.234Z,18.30
2023-03-23T22:27:52.664Z,18.30
2023-03-23T22:30:21.708Z,18.20
2023-03-23T22:32:50.472Z,18.20
2023-03-23T22:35:19.552Z,18.20
2023-03-23T22:37:49.429Z,18.20
2023-03-23T22:40:19.686Z,18.20
2023-03-23T22:42:48.461Z,18.20
2023-03-23T22:45:17.351Z,18.20
2023-03-23T22:47:46.193Z,18.10
2023-03-23T22:50:15.262Z,18.20
2023-03-23T22:52:43.640Z,18.10
2023-03-23T22:55:13.611Z,18.10
2023-03-23T22:57:42.154Z,18.10
2023-03-23T23:00:15.052Z,18.00
2023-03-23T23:02:44.365Z,18.00
2023-03-23T23:05:13.872Z,18.00
2023-03-23T23:07:42.786Z,18.00
2023-03-23T23:10:12.682Z,18.00
2023-03-23T23:12:42.672Z,18.00
2023-03-23T23:15:14.614Z,18.00
2023-03-23T23:17:43.378Z,18.00
2023-03-23T23:20:14.401Z,18.00
2023-03-23T23:22:44.536Z,18.00
2023-03-23T23:25:15.197Z,17.90
2023-03-23T23:27:43.650Z,18.00
2023-03-23T23:30:13.681Z,17.90
2023-03-23T23:32:42.962Z,17.90
2023-03-23T23:35:13.120Z,17.90
2023-03-23T23:37:41.694Z,18.00
2023-03-23T23:40:11.208Z,17.90
2023-03-23T23:42:41.037Z,17.90
2023-03-23T23:45:10.929Z,17.90
2023-03-23T23:47:39.870Z,17.90
2023-03-23T23:50:10.437Z,17.90
2023-03-23T23:52:40.622Z,17.90
2023-03-23T23:55:10.489Z,17.90
2023-03-23T23:57:40.790Z,17.90
